Time;durP1;ratioP1;P1;durP2;ratioP2;P2;SDS_P1;SDS_P2;PMS_P1;PMS_P2;Temp;Humidity;BMP_temperature;BMP_pressure;BME280_temperature;BME280_humidity;BME280_pressure;Samples;Min_cycle;Max_cycle;Signal;HPM_P1;HPM_P2
2022/12/13 00:01:46;;;;;;;13.23;6.97;;;5.80;92.60;;;;;;6147057;23;20237;-76
2022/12/13 00:04:14;;;;;;;12.30;6.87;;;5.80;92.30;;;;;;6150411;23;20204;-75
2022/12/13 00:06:43;;;;;;;13.53;7.33;;;5.80;92.50;;;;;;6147368;23;20285;-77
2022/12/13 00:09:15;;;;;;;13.70;6.67;;;5.80;92.50;;;;;;6149280;23;20250;-77
2022/12/13 00:11:44;;;;;;;12.63;6.57;;;5.80;92.50;;;;;;6147867;23;20190;-76
2022/12/13 00:14:13;;;;;;;12.53;6.40;;;5.70;92.50;;;;;;6149178;23;20201;-76
2022/12/13 00:16:45;;;;;;;12.83;6.57;;;5.70;92.40;;;;;;6149316;23;20180;-77
2022/12/13 00:19:14;;;;;;;13.07;7.17;;;5.70;92.40;;;;;;6152212;23;20169;-77
2022/12/13 00:21:43;;;;;;;13.67;6.80;;;5.70;92.40;;;;;;6152097;23;20200;-77
2022/12/13 00:24:11;;;;;;;11.50;5.60;;;5.70;92.40;;;;;;6151022;23;20200;-77
2022/12/13 00:26:41;;;;;;;9.63;5.77;;;5.70;92.30;;;;;;6150834;23;20182;-76
2022/12/13 00:29:10;;;;;;;12.43;6.87;;;5.70;92.20;;;;;;6152373;23;20238;-77
2022/12/13 00:31:39;;;;;;;11.63;6.57;;;5.70;92.20;;;;;;6150333;23;20173;-77
2022/12/13 00:34:27;;;;;;;14.13;5.87;;;5.70;92.20;;;;;;6151220;23;20172;-78
2022/12/13 00:36:58;;;;;;;9.90;5.67;;;5.70;92.10;;;;;;6150662;23;20199;-77
2022/12/13 00:39:28;;;;;;;12.53;6.27;;;5.70;92.50;;;;;;6153354;23;20173;-77
2022/12/13 00:41:57;;;;;;;11.63;5.87;;;5.70;92.10;;;;;;6154390;23;20251;-77
2022/12/13 00:44:26;;;;;;;12.43;6.03;;;5.70;92.10;;;;;;6153926;23;20247;-77
2022/12/13 00:46:55;;;;;;;12.97;6.73;;;5.70;92.00;;;;;;6149023;23;20255;-77
2022/12/13 00:49:24;;;;;;;11.00;5.70;;;5.70;91.90;;;;;;6154146;23;20515;-77
2022/12/13 00:51:52;;;;;;;11.00;5.63;;;5.70;91.80;;;;;;6150134;23;20179;-77
2022/12/13 00:54:20;;;;;;;11.97;6.30;;;5.70;91.80;;;;;;6151837;23;20366;-77
2022/12/13 00:56:50;;;;;;;9.80;6.00;;;5.60;91.60;;;;;;6150487;23;20227;-77
2022/12/13 00:59:19;;;;;;;13.90;5.37;;;5.60;91.60;;;;;;6153520;23;20169;-77
2022/12/13 01:01:48;;;;;;;13.13;6.30;;;5.60;91.60;;;;;;6151322;23;20253;-77
2022/12/13 01:04:16;;;;;;;12.15;6.97;;;5.50;91.50;;;;;;6150460;23;20896;-77
2022/12/13 01:06:48;;;;;;;10.57;5.87;;;5.50;91.60;;;;;;6151978;23;20202;-77
2022/12/13 01:09:19;;;;;;;9.90;5.37;;;5.50;91.60;;;;;;6151976;23;20167;-77
2022/12/13 01:11:48;;;;;;;11.73;6.17;;;5.50;91.50;;;;;;6152870;23;20511;-77
2022/12/13 01:14:17;;;;;;;10.97;5.37;;;5.50;91.40;;;;;;6149637;23;20243;-77
2022/12/13 01:16:47;;;;;;;11.70;5.80;;;5.50;91.40;;;;;;6150100;23;20205;-76
2022/12/13 01:19:15;;;;;;;10.50;6.00;;;5.40;91.30;;;;;;6151544;23;20169;-77
2022/12/13 01:21:44;;;;;;;13.70;6.43;;;5.40;91.20;;;;;;6149375;23;20185;-77
2022/12/13 01:24:14;;;;;;;12.67;5.57;;;5.30;91.10;;;;;;6148320;23;20717;-78
2022/12/13 01:26:42;;;;;;;9.73;5.23;;;5.30;91.10;;;;;;6147909;23;20176;-77
2022/12/13 01:29:10;;;;;;;12.83;5.67;;;5.30;91.10;;;;;;6151583;23;20181;-77
2022/12/13 01:31:40;;;;;;;10.90;5.63;;;5.30;91.10;;;;;;6147910;23;20184;-76
2022/12/13 01:34:11;;;;;;;14.00;5.43;;;5.20;91.10;;;;;;6151923;23;20161;-76
2022/12/13 01:36:41;;;;;;;10.53;6.00;;;5.20;91.10;;;;;;6148779;23;20165;-76
2022/12/13 01:39:11;;;;;;;9.37;5.80;;;5.20;91.10;;;;;;6152971;23;20172;-76
2022/12/13 01:41:44;;;;;;;11.17;5.57;;;5.20;91.20;;;;;;6149778;23;20168;-78
2022/12/13 01:44:45;;;;;;;10.87;5.83;;;5.20;91.20;;;;;;6149620;23;20208;-77
2022/12/13 01:47:16;;;;;;;9.53;5.03;;;5.20;91.20;;;;;;6148016;23;20172;-77
2022/12/13 01:49:46;;;;;;;12.10;5.90;;;5.20;91.10;;;;;;6147969;23;20160;-76
2022/12/13 01:52:16;;;;;;;12.53;6.00;;;5.10;91.10;;;;;;6147341;23;20235;-76
2022/12/13 01:54:47;;;;;;;11.73;6.00;;;5.10;91.10;;;;;;6149363;23;20227;-78
2022/12/13 01:57:19;;;;;;;11.07;5.67;;;5.10;91.10;;;;;;6148448;23;20161;-77
2022/12/13 01:59:52;;;;;;;11.27;5.57;;;5.10;91.00;;;;;;6152281;23;20543;-77
2022/12/13 02:02:20;;;;;;;9.93;5.10;;;5.10;91.10;;;;;;6147516;23;20240;-77
2022/12/13 02:04:56;;;;;;;10.83;5.37;;;5.00;91.00;;;;;;6151989;23;20192;-79
2022/12/13 02:07:31;;;;;;;14.93;5.80;;;5.00;91.10;;;;;;6150522;23;20199;-77
2022/12/13 02:10:01;;;;;;;11.03;5.80;;;5.10;91.10;;;;;;6146946;23;20161;-77
2022/12/13 02:12:31;;;;;;;12.63;5.47;;;5.00;91.10;;;;;;6149130;23;20637;-77
2022/12/13 02:15:02;;;;;;;10.67;5.07;;;5.00;91.10;;;;;;6152489;23;20591;-78
2022/12/13 02:17:38;;;;;;;9.43;5.73;;;5.00;91.10;;;;;;6151286;23;20196;-76
2022/12/13 02:20:41;;;;;;;13.13;6.93;;;5.00;91.10;;;;;;6150380;23;20165;-77
2022/12/13 02:23:37;;;;;;;10.93;5.77;;;5.00;91.00;;;;;;6152888;23;20173;-76
2022/12/13 02:26:27;;;;;;;14.63;5.57;;;5.00;91.10;;;;;;6152202;23;20231;-77
2022/12/13 02:29:10;;;;;;;13.57;6.27;;;5.00;91.00;;;;;;6152193;23;20161;-79
2022/12/13 02:31:45;;;;;;;11.83;5.50;;;5.00;91.00;;;;;;6152228;23;20168;-77
2022/12/13 02:34:21;;;;;;;10.37;5.67;;;4.90;90.90;;;;;;6150843;23;20160;-77
2022/12/13 02:36:57;;;;;;;10.47;5.33;;;4.90;91.00;;;;;;6151945;23;20219;-77
2022/12/13 02:39:31;;;;;;;10.60;5.00;;;4.90;90.90;;;;;;6153118;23;20176;-77
2022/12/13 02:42:02;;;;;;;10.73;5.30;;;4.90;90.80;;;;;;6151250;23;20191;-77
2022/12/13 02:44:41;;;;;;;9.93;5.40;;;4.90;90.90;;;;;;6152366;23;20188;-79
2022/12/13 02:47:15;;;;;;;10.10;5.03;;;4.80;90.80;;;;;;6149289;23;20168;-78
2022/12/13 02:49:52;;;;;;;12.53;5.77;;;4.80;90.80;;;;;;6150284;23;20522;-78
2022/12/13 02:52:25;;;;;;;11.63;6.50;;;4.80;90.70;;;;;;6149336;23;20184;-78
2022/12/13 02:54:55;;;;;;;9.93;5.27;;;4.80;90.70;;;;;;6151901;23;20161;-78
2022/12/13 02:57:29;;;;;;;9.23;5.13;;;4.80;90.60;;;;;;6151718;23;20231;-79
2022/12/13 03:00:02;;;;;;;10.80;5.67;;;4.80;90.60;;;;;;6151897;23;20192;-79
2022/12/13 03:02:42;;;;;;;8.63;4.40;;;4.70;90.60;;;;;;6149971;23;20184;-78
2022/12/13 03:08:20;;;;;;;10.50;5.83;;;4.80;90.70;;;;;;6149495;23;20223;-78
2022/12/13 03:10:59;;;;;;;10.60;5.50;;;4.70;90.60;;;;;;6149399;23;20777;-78
2022/12/13 03:13:36;;;;;;;11.27;5.57;;;4.70;90.50;;;;;;6149977;23;20179;-78
2022/12/13 03:16:21;;;;;;;10.33;4.90;;;4.70;90.60;;;;;;6146271;23;20160;-79
2022/12/13 03:18:53;;;;;;;9.13;5.17;;;4.70;90.50;;;;;;6152312;23;20167;-78
2022/12/13 03:21:21;;;;;;;10.50;5.83;;;4.70;90.50;;;;;;6149671;23;20685;-79
2022/12/13 03:23:49;;;;;;;10.10;5.67;;;4.60;90.50;;;;;;6152045;23;20227;-78
2022/12/13 03:26:21;;;;;;;10.37;5.30;;;4.60;90.40;;;;;;6151590;23;21009;-79
2022/12/13 03:28:50;;;;;;;10.50;5.90;;;4.60;90.50;;;;;;6151582;23;20168;-78
2022/12/13 03:31:19;;;;;;;12.13;5.63;;;4.60;90.30;;;;;;6149330;23;20546;-79
2022/12/13 03:33:47;;;;;;;10.03;5.23;;;4.60;90.20;;;;;;6150209;23;20685;-78
2022/12/13 03:36:18;;;;;;;9.20;5.33;;;4.60;90.30;;;;;;6146269;23;20280;-78
2022/12/13 03:38:51;;;;;;;13.97;6.70;;;4.60;90.40;;;;;;6151975;23;20160;-78
2022/12/13 03:41:23;;;;;;;11.90;5.73;;;4.60;90.30;;;;;;6148398;23;20192;-79
2022/12/13 03:43:51;;;;;;;11.23;5.80;;;4.50;90.20;;;;;;6151908;23;20165;-79
2022/12/13 03:46:19;;;;;;;11.53;5.77;;;4.50;90.20;;;;;;6150626;23;20212;-78
2022/12/13 03:48:48;;;;;;;12.40;6.87;;;4.50;90.20;;;;;;6150973;23;20458;-80
2022/12/13 03:51:17;;;;;;;14.40;5.70;;;4.50;90.50;;;;;;6152075;23;20177;-79
2022/12/13 03:53:46;;;;;;;10.80;5.60;;;4.50;90.50;;;;;;6151393;23;20249;-78
2022/12/13 03:56:14;;;;;;;12.03;5.40;;;4.50;90.40;;;;;;6151597;23;20181;-77
2022/12/13 03:58:42;;;;;;;11.33;5.47;;;4.50;90.30;;;;;;6148952;23;20176;-77
2022/12/13 04:01:13;;;;;;;11.30;5.57;;;4.50;90.30;;;;;;6150422;23;20173;-77
2022/12/13 04:03:44;;;;;;;11.30;5.90;;;4.40;90.30;;;;;;6152425;23;20157;-78
2022/12/13 04:06:13;;;;;;;13.57;5.13;;;4.50;90.30;;;;;;6150011;23;20204;-78
2022/12/13 04:08:52;;;;;;;11.33;5.90;;;4.40;90.20;;;;;;6149509;23;20235;-77
2022/12/13 04:14:10;;;;;;;12.43;5.90;;;4.40;90.10;;;;;;6153276;23;20473;-77
2022/12/13 04:16:39;;;;;;;11.30;6.03;;;4.40;90.20;;;;;;6150982;23;20462;-78
2022/12/13 04:19:08;;;;;;;10.53;5.53;;;4.40;90.00;;;;;;6152129;23;20180;-77
2022/12/13 04:21:36;;;;;;;11.23;5.20;;;4.40;90.20;;;;;;6151394;23;20230;-77
2022/12/13 04:24:06;;;;;;;10.10;5.53;;;4.40;90.10;;;;;;6154375;23;20173;-77
2022/12/13 04:26:35;;;;;;;13.68;6.72;;;4.30;90.00;;;;;;6151461;23;20406;-76
2022/12/13 04:29:03;;;;;;;11.33;5.67;;;4.30;90.20;;;;;;6153126;23;20555;-76
2022/12/13 04:31:31;;;;;;;10.87;5.63;;;4.40;90.20;;;;;;6149901;23;20626;-77
2022/12/13 04:34:00;;;;;;;10.93;5.40;;;4.30;90.20;;;;;;6150966;23;20179;-79
2022/12/13 04:36:28;;;;;;;9.17;4.73;;;4.40;90.10;;;;;;6148494;23;20250;-77
2022/12/13 04:39:00;;;;;;;12.43;5.87;;;4.30;90.00;;;;;;6153770;23;20173;-78
2022/12/13 04:41:35;;;;;;;11.57;5.93;;;4.30;89.90;;;;;;6153951;23;20542;-78
2022/12/13 04:44:04;;;;;;;10.93;5.57;;;4.30;89.70;;;;;;6151047;23;20164;-78
2022/12/13 04:46:33;;;;;;;10.17;5.60;;;4.30;89.60;;;;;;6150451;23;20200;-78
2022/12/13 04:49:01;;;;;;;10.80;5.57;;;4.30;89.70;;;;;;6150838;23;20172;-76
2022/12/13 04:51:30;;;;;;;11.57;5.43;;;4.30;89.80;;;;;;6152451;23;20176;-77
2022/12/13 04:53:58;;;;;;;11.37;6.07;;;4.30;89.90;;;;;;6152354;23;20692;-77
2022/12/13 04:56:48;;;;;;;13.07;6.13;;;4.30;89.70;;;;;;6151328;23;20255;-77
2022/12/13 04:59:16;;;;;;;13.37;6.57;;;4.30;89.90;;;;;;6152429;23;20219;-76
2022/12/13 05:01:45;;;;;;;13.07;6.07;;;4.30;89.80;;;;;;6152150;23;20176;-78
2022/12/13 05:04:13;;;;;;;11.93;5.57;;;4.30;89.90;;;;;;6149576;23;20172;-77
2022/12/13 05:06:43;;;;;;;10.33;5.20;;;4.30;89.90;;;;;;6147906;23;20211;-77
2022/12/13 05:09:14;;;;;;;11.97;6.03;;;4.30;89.90;;;;;;6152661;23;20633;-77
2022/12/13 05:11:43;;;;;;;11.27;5.93;;;4.30;89.90;;;;;;6151018;23;20177;-78
2022/12/13 05:14:15;;;;;;;12.60;5.93;;;4.30;89.90;;;;;;6150051;23;20165;-77
2022/12/13 05:16:51;;;;;;;12.43;6.33;;;4.30;90.00;;;;;;6149452;23;20219;-78
2022/12/13 05:19:19;;;;;;;10.90;5.40;;;4.40;89.90;;;;;;6149475;23;20247;-78
2022/12/13 05:21:58;;;;;;;13.30;5.87;;;4.30;89.70;;;;;;6149859;23;20157;-77
2022/12/13 05:24:29;;;;;;;9.67;4.83;;;4.40;89.60;;;;;;6144409;23;20649;-77
2022/12/13 05:26:58;;;;;;;11.93;5.03;;;4.30;89.40;;;;;;6145825;23;20954;-77
2022/12/13 05:29:28;;;;;;;10.40;5.27;;;4.30;89.40;;;;;;6147006;23;20172;-78
2022/12/13 05:31:56;;;;;;;15.03;5.47;;;4.40;89.40;;;;;;6149082;23;20235;-77
2022/12/13 05:34:25;;;;;;;11.07;5.23;;;4.30;89.10;;;;;;6149770;23;20188;-78
2022/12/13 05:36:53;;;;;;;12.87;5.50;;;4.30;89.30;;;;;;6149317;23;20181;-78
2022/12/13 05:39:21;;;;;;;10.87;5.63;;;4.30;89.40;;;;;;6149852;23;20180;-78
2022/12/13 05:41:57;;;;;;;12.77;5.60;;;4.40;89.30;;;;;;6149354;23;20164;-78
2022/12/13 05:44:31;;;;;;;12.10;5.90;;;4.40;89.30;;;;;;6146653;23;20161;-77
2022/12/13 05:47:00;;;;;;;12.33;5.70;;;4.30;89.00;;;;;;6146801;23;20196;-78
2022/12/13 05:49:30;;;;;;;9.97;5.60;;;4.40;88.90;;;;;;6148062;23;20173;-78
2022/12/13 05:51:59;;;;;;;10.53;5.37;;;4.30;88.80;;;;;;6148023;23;20180;-80
2022/12/13 05:54:28;;;;;;;10.23;4.77;;;4.30;88.40;;;;;;6149452;23;20176;-78
2022/12/13 05:56:56;;;;;;;11.70;6.00;;;4.40;88.70;;;;;;6146734;23;20180;-78
2022/12/13 05:59:24;;;;;;;11.63;5.50;;;4.40;88.90;;;;;;6145314;23;20247;-78
2022/12/13 06:01:54;;;;;;;11.57;5.47;;;4.40;89.00;;;;;;6151512;23;20176;-79
2022/12/13 06:04:23;;;;;;;11.47;5.40;;;4.40;89.00;;;;;;6149291;23;20504;-78
2022/12/13 06:06:51;;;;;;;10.07;5.67;;;4.50;88.90;;;;;;6092803;23;20217;-78
2022/12/13 06:09:20;;;;;;;10.70;5.37;;;4.50;88.90;;;;;;6123124;23;20180;-79
2022/12/13 06:11:48;;;;;;;9.10;4.77;;;4.50;89.10;;;;;;6119666;23;20219;-78
2022/12/13 06:14:17;;;;;;;14.27;5.63;;;4.50;88.80;;;;;;6124385;23;20170;-79
2022/12/13 06:16:51;;;;;;;10.67;5.77;;;4.50;88.30;;;;;;6123503;23;20193;-78
2022/12/13 06:19:22;;;;;;;11.87;5.20;;;4.50;87.80;;;;;;6122377;23;20228;-79
2022/12/13 06:21:50;;;;;;;11.53;5.27;;;4.50;87.80;;;;;;6117600;23;20165;-78
2022/12/13 06:24:20;;;;;;;11.73;6.10;;;4.50;87.70;;;;;;6120760;23;20176;-78
2022/12/13 06:26:50;;;;;;;12.47;6.00;;;4.60;87.70;;;;;;6121311;23;20193;-78
2022/12/13 06:29:20;;;;;;;11.17;5.47;;;4.60;87.60;;;;;;6124170;23;20482;-78
2022/12/13 06:31:54;;;;;;;11.13;5.90;;;4.50;87.10;;;;;;6117840;23;20204;-78
2022/12/13 06:34:32;;;;;;;14.73;5.03;;;4.60;87.40;;;;;;6117685;23;20172;-78
2022/12/13 06:37:01;;;;;;;11.57;5.40;;;4.60;87.30;;;;;;6119222;23;20165;-79
2022/12/13 06:39:30;;;;;;;11.20;5.67;;;4.60;87.50;;;;;;6118398;23;20617;-80
2022/12/13 06:42:00;;;;;;;11.53;5.97;;;4.60;87.50;;;;;;6111485;23;20277;-78
2022/12/13 06:44:29;;;;;;;11.07;6.20;;;4.60;87.60;;;;;;6120101;23;20682;-78
2022/12/13 06:46:57;;;;;;;15.27;6.20;;;4.60;87.50;;;;;;6119925;23;20216;-78
2022/12/13 06:49:42;;;;;;;11.43;5.93;;;4.70;87.70;;;;;;6115723;23;20196;-78
2022/12/13 06:52:13;;;;;;;16.47;6.70;;;4.60;87.10;;;;;;6115337;23;20157;-78
2022/12/13 06:54:42;;;;;;;14.48;7.15;;;4.60;87.10;;;;;;6122233;23;20343;-78
2022/12/13 06:57:11;;;;;;;12.10;6.63;;;4.60;87.20;;;;;;6121888;23;20197;-78
2022/12/13 06:59:39;;;;;;;15.07;7.70;;;4.60;87.30;;;;;;6120115;23;20239;-78
2022/12/13 07:02:09;;;;;;;16.23;8.60;;;4.60;86.90;;;;;;6121784;23;20169;-78
2022/12/13 07:04:55;;;;;;;11.10;5.70;;;4.50;86.90;;;;;;6118100;23;20157;-78
2022/12/13 07:07:25;;;;;;;19.50;8.27;;;4.60;87.30;;;;;;6147766;23;20673;-79
2022/12/13 07:09:53;;;;;;;19.23;9.17;;;4.60;87.50;;;;;;6154089;23;20168;-78
2022/12/13 07:12:22;;;;;;;12.73;6.17;;;4.70;87.20;;;;;;6152629;23;20179;-78
2022/12/13 07:14:50;;;;;;;12.77;7.10;;;4.60;86.70;;;;;;6149664;23;20172;-79
2022/12/13 07:17:20;;;;;;;16.60;8.00;;;4.60;86.30;;;;;;6152423;23;20183;-78
2022/12/13 07:20:08;;;;;;;27.03;13.23;;;4.70;86.30;;;;;;6152824;23;20161;-79
2022/12/13 07:22:37;;;;;;;18.20;9.98;;;4.70;86.60;;;;;;6153211;23;20383;-79
2022/12/13 07:25:15;;;;;;;13.23;7.03;;;4.70;86.70;;;;;;6152279;23;20240;-78
2022/12/13 07:27:58;;;;;;;14.10;6.43;;;4.80;86.70;;;;;;6153041;23;20192;-79
2022/12/13 07:30:30;;;;;;;11.93;7.10;;;4.80;86.60;;;;;;6151519;23;20160;-79
2022/12/13 07:32:58;;;;;;;17.67;8.17;;;4.80;86.40;;;;;;6152338;23;20168;-80
2022/12/13 07:35:28;;;;;;;17.63;7.90;;;4.90;86.60;;;;;;6150148;23;20512;-77
2022/12/13 07:37:56;;;;;;;21.23;7.87;;;4.90;86.30;;;;;;6146163;23;20220;-77
2022/12/13 07:40:24;;;;;;;18.23;7.17;;;4.90;86.70;;;;;;6149374;23;20173;-78
2022/12/13 07:42:54;;;;;;;24.37;8.13;;;4.90;86.20;;;;;;6149814;23;20180;-78
2022/12/13 07:45:24;;;;;;;29.80;10.93;;;4.90;85.80;;;;;;6148065;23;20210;-79
2022/12/13 07:47:52;;;;;;;34.07;10.97;;;4.90;85.40;;;;;;6153536;23;20196;-79
2022/12/13 07:50:21;;;;;;;45.73;14.27;;;5.00;85.40;;;;;;6152475;23;20208;-78
2022/12/13 07:52:54;;;;;;;38.93;11.23;;;5.00;85.40;;;;;;6152662;23;20593;-78
2022/12/13 07:55:22;;;;;;;32.43;13.60;;;5.00;85.30;;;;;;6153601;23;20760;-78
2022/12/13 07:58:05;;;;;;;18.90;8.93;;;5.10;85.50;;;;;;6154569;23;20540;-78
2022/12/13 08:00:34;;;;;;;30.00;11.53;;;5.10;85.60;;;;;;6155400;23;20275;-78
2022/12/13 08:03:02;;;;;;;13.17;6.23;;;5.20;85.50;;;;;;6153092;23;20556;-78
2022/12/13 08:05:30;;;;;;;25.90;9.50;;;5.20;85.60;;;;;;6152388;23;20224;-77
2022/12/13 08:08:10;;;;;;;16.80;7.43;;;5.20;85.10;;;;;;6146843;23;20221;-79
2022/12/13 08:10:39;;;;;;;15.70;7.17;;;5.20;84.80;;;;;;6151995;23;20162;-79
2022/12/13 08:13:07;;;;;;;25.13;8.53;;;5.20;84.80;;;;;;6152071;23;20199;-77
2022/12/13 08:15:36;;;;;;;20.13;8.00;;;5.20;84.80;;;;;;6154857;23;20183;-77
2022/12/13 08:18:04;;;;;;;12.10;6.43;;;5.20;84.70;;;;;;6151230;23;20312;-77
2022/12/13 08:20:32;;;;;;;17.10;7.00;;;5.20;85.20;;;;;;6152316;23;20188;-77
2022/12/13 08:23:01;;;;;;;13.20;7.57;;;5.30;85.00;;;;;;6150382;23;20168;-76
2022/12/13 08:25:31;;;;;;;26.97;9.30;;;5.30;85.00;;;;;;6151555;23;20179;-77
2022/12/13 08:28:00;;;;;;;17.60;7.17;;;5.30;85.20;;;;;;6149679;23;20233;-76
2022/12/13 08:30:31;;;;;;;18.60;7.53;;;5.30;85.50;;;;;;6150343;23;20916;-79
2022/12/13 08:32:59;;;;;;;15.07;7.40;;;5.30;85.20;;;;;;6151083;23;20545;-77
2022/12/13 08:35:33;;;;;;;14.97;6.83;;;5.30;84.80;;;;;;6153425;23;20161;-77
2022/12/13 08:38:02;;;;;;;14.10;6.23;;;5.30;84.90;;;;;;6152061;23;20231;-77
2022/12/13 08:40:33;;;;;;;14.73;6.77;;;5.20;84.70;;;;;;6153724;23;20176;-77
2022/12/13 08:43:05;;;;;;;13.90;7.27;;;5.20;84.70;;;;;;6150519;23;20161;-77
2022/12/13 08:45:33;;;;;;;14.80;7.57;;;5.20;84.50;;;;;;6153575;23;20160;-77
2022/12/13 08:48:02;;;;;;;19.47;9.33;;;5.20;84.60;;;;;;6152718;23;20196;-77
2022/12/13 08:50:31;;;;;;;14.43;7.43;;;5.10;84.70;;;;;;6154487;23;20169;-77
2022/12/13 08:52:59;;;;;;;38.23;8.23;;;5.20;85.00;;;;;;6152097;23;20223;-77
2022/12/13 08:55:27;;;;;;;12.70;5.90;;;5.20;85.00;;;;;;6149266;23;20229;-78
2022/12/13 08:58:07;;;;;;;13.57;5.80;;;5.10;83.60;;;;;;6151501;23;20167;-76
2022/12/13 09:00:36;;;;;;;10.37;5.30;;;5.20;83.60;;;;;;6151589;23;20521;-78
2022/12/13 09:03:05;;;;;;;12.43;5.67;;;5.20;83.20;;;;;;6150755;23;20178;-78
2022/12/13 09:05:37;;;;;;;13.07;6.17;;;5.20;83.20;;;;;;6146887;23;20174;-76
2022/12/13 09:08:06;;;;;;;12.33;5.87;;;5.20;83.20;;;;;;6148421;23;20521;-77
2022/12/13 09:10:58;;;;;;;10.43;5.60;;;5.20;82.40;;;;;;6152246;23;20165;-77
2022/12/13 09:13:29;;;;;;;13.17;6.20;;;5.20;82.60;;;;;;6152271;23;20262;-77
2022/12/13 09:16:03;;;;;;;12.27;5.33;;;5.30;82.50;;;;;;6154289;23;20157;-77
2022/12/13 09:18:42;;;;;;;11.27;5.53;;;5.40;83.10;;;;;;6152512;23;20169;-77
2022/12/13 09:21:11;;;;;;;12.97;6.17;;;5.40;82.50;;;;;;6152152;23;20251;-78
2022/12/13 09:23:49;;;;;;;14.03;5.87;;;5.60;83.30;;;;;;6150826;23;20163;-77
2022/12/13 09:26:17;;;;;;;10.63;4.93;;;5.60;82.80;;;;;;6149856;23;20187;-78
2022/12/13 09:28:54;;;;;;;10.43;5.30;;;5.70;83.10;;;;;;6151638;23;20194;-78
2022/12/13 09:31:22;;;;;;;13.20;5.33;;;5.70;82.10;;;;;;6154547;23;20181;-77
2022/12/13 09:33:51;;;;;;;9.70;5.40;;;5.80;82.50;;;;;;6151815;23;20180;-78
2022/12/13 09:36:21;;;;;;;12.17;5.87;;;5.80;82.50;;;;;;6154684;23;20175;-78
2022/12/13 09:38:51;;;;;;;12.00;5.23;;;5.90;82.60;;;;;;6152181;23;20172;-78
2022/12/13 09:41:25;;;;;;;8.37;5.07;;;5.90;81.90;;;;;;6149098;23;20180;-80
2022/12/13 09:44:04;;;;;;;11.77;5.23;;;5.90;81.30;;;;;;6154459;23;20167;-79
2022/12/13 09:46:34;;;;;;;8.37;4.50;;;6.00;81.70;;;;;;6153589;23;20555;-81
2022/12/13 09:49:16;;;;;;;10.50;4.67;;;6.00;81.70;;;;;;6146537;23;20650;-79
2022/12/13 09:51:54;;;;;;;10.33;5.30;;;6.00;81.70;;;;;;6154946;23;20164;-78
2022/12/13 09:54:40;;;;;;;11.60;5.70;;;6.10;81.90;;;;;;6146276;23;20483;-78
2022/12/13 09:57:19;;;;;;;11.23;5.37;;;6.10;81.70;;;;;;6149611;23;20165;-78
2022/12/13 10:00:05;;;;;;;10.87;5.23;;;6.20;81.50;;;;;;6149058;23;20170;-79
2022/12/13 10:02:40;;;;;;;8.97;5.27;;;6.30;81.00;;;;;;6146154;23;20198;-78
2022/12/13 10:05:23;;;;;;;15.40;5.93;;;6.30;81.10;;;;;;6151922;23;20167;-78
2022/12/13 10:08:09;;;;;;;12.33;5.10;;;6.30;80.10;;;;;;6152935;23;20163;-77
2022/12/13 10:10:38;;;;;;;9.40;5.00;;;6.40;80.50;;;;;;6150906;23;20600;-77
2022/12/13 10:13:15;;;;;;;10.47;5.77;;;6.40;80.40;;;;;;6154510;23;20175;-77
2022/12/13 10:15:48;;;;;;;9.30;5.17;;;6.50;80.30;;;;;;6152445;23;20539;-78
2022/12/13 10:18:26;;;;;;;12.00;5.90;;;6.50;80.50;;;;;;6147798;23;20223;-78
2022/12/13 10:20:55;;;;;;;9.00;5.10;;;6.60;80.70;;;;;;6153386;23;20613;-78
2022/12/13 10:23:23;;;;;;;11.93;5.47;;;6.60;80.10;;;;;;6149313;23;20176;-79
2022/12/13 10:26:13;;;;;;;8.77;5.03;;;6.70;80.10;;;;;;6147367;23;20258;-79
2022/12/13 10:29:01;;;;;;;11.73;5.73;;;6.60;79.10;;;;;;6153850;23;20914;-80
2022/12/13 10:32:11;;;;;;;14.17;5.30;;;6.70;79.70;;;;;;6144746;23;20275;-77
2022/12/13 10:34:40;;;;;;;14.73;5.93;;;6.70;79.70;;;;;;6152658;23;20196;-79
2022/12/13 10:37:26;;;;;;;10.50;5.73;;;6.80;79.40;;;;;;6152225;23;20677;-79
2022/12/13 10:39:55;;;;;;;13.70;5.60;;;6.80;79.40;;;;;;6153424;23;20164;-77
2022/12/13 10:42:23;;;;;;;15.83;6.03;;;6.90;79.80;;;;;;6153236;23;20231;-78
2022/12/13 10:45:14;;;;;;;11.67;5.90;;;6.90;79.60;;;;;;6153803;23;20160;-76
2022/12/13 10:47:45;;;;;;;13.37;6.07;;;7.00;79.50;;;;;;6152367;23;20171;-79
2022/12/13 10:50:25;;;;;;;12.20;5.83;;;7.00;79.50;;;;;;6152635;23;20192;-79
2022/12/13 10:52:54;;;;;;;10.37;5.30;;;7.00;78.90;;;;;;6153603;23;20210;-78
2022/12/13 10:55:29;;;;;;;14.20;5.63;;;7.10;79.20;;;;;;6154668;23;20173;-78
2022/12/13 10:58:01;;;;;;;15.60;6.50;;;7.10;78.90;;;;;;6152440;23;20167;-77
2022/12/13 11:00:36;;;;;;;10.83;5.83;;;7.10;78.70;;;;;;6152119;23;20168;-78
2022/12/13 11:03:06;;;;;;;9.50;5.27;;;7.20;78.20;;;;;;6152012;23;20217;-79
2022/12/13 11:05:37;;;;;;;10.90;6.20;;;7.20;78.80;;;;;;6153521;23;20171;-80
2022/12/13 11:08:19;;;;;;;13.97;5.83;;;7.20;77.90;;;;;;6152388;23;20161;-77
2022/12/13 11:10:57;;;;;;;9.73;5.53;;;7.30;77.80;;;;;;6149517;23;20234;-77
2022/12/13 11:13:35;;;;;;;12.33;6.40;;;7.30;78.10;;;;;;6153241;23;20167;-77
2022/12/13 11:16:05;;;;;;;15.33;6.17;;;7.30;77.90;;;;;;6153716;23;20614;-77
2022/12/13 11:18:39;;;;;;;10.03;5.40;;;7.30;77.80;;;;;;6154325;23;20200;-77
2022/12/13 11:21:07;;;;;;;14.90;6.17;;;7.40;77.50;;;;;;6152658;23;20160;-77
2022/12/13 11:23:39;;;;;;;12.40;6.53;;;7.40;77.30;;;;;;6154061;23;20176;-77
2022/12/13 11:26:11;;;;;;;13.27;5.77;;;7.40;76.60;;;;;;6152867;23;20523;-77
2022/12/13 11:29:08;;;;;;;10.40;5.30;;;7.50;77.10;;;;;;6151532;23;20755;-77
2022/12/13 11:31:45;;;;;;;11.10;5.27;;;7.50;77.20;;;;;;6151891;23;20663;-77
2022/12/13 11:34:25;;;;;;;11.60;5.47;;;7.50;77.20;;;;;;6154144;23;20164;-76
2022/12/13 11:37:01;;;;;;;15.77;5.67;;;7.60;76.90;;;;;;6150831;23;20215;-77
2022/12/13 11:39:32;;;;;;;14.10;6.30;;;7.70;76.50;;;;;;6153972;23;20617;-77
2022/12/13 11:42:08;;;;;;;14.17;5.97;;;7.70;76.90;;;;;;6149799;23;20164;-78
2022/12/13 11:44:44;;;;;;;14.00;6.40;;;7.80;76.80;;;;;;6154144;23;20160;-77
2022/12/13 11:47:24;;;;;;;10.30;5.30;;;7.80;75.50;;;;;;6148285;23;20192;-77
2022/12/13 11:49:57;;;;;;;11.80;5.67;;;7.90;75.50;;;;;;6146945;23;20184;-77
2022/12/13 11:52:29;;;;;;;11.00;5.67;;;7.90;75.20;;;;;;6153023;23;20161;-77
2022/12/13 11:55:01;;;;;;;10.90;5.27;;;8.00;74.10;;;;;;6153146;23;20164;-75
2022/12/13 11:57:42;;;;;;;13.13;5.33;;;8.00;74.50;;;;;;6152409;23;20598;-75
2022/12/13 12:00:27;;;;;;;8.80;4.87;;;8.00;73.30;;;;;;6150200;23;20532;-76
2022/12/13 12:03:14;;;;;;;8.90;5.00;;;8.10;73.30;;;;;;6152221;23;20164;-77
2022/12/13 12:05:49;;;;;;;7.77;4.20;;;8.10;72.80;;;;;;6152349;23;20192;-76
2022/12/13 12:08:33;;;;;;;9.03;5.00;;;8.20;73.50;;;;;;6150098;23;20239;-75
2022/12/13 12:11:09;;;;;;;10.03;5.17;;;8.30;72.10;;;;;;6152079;23;20192;-76
2022/12/13 12:13:42;;;;;;;6.80;4.10;;;8.30;71.90;;;;;;6151420;23;20160;-76
2022/12/13 12:16:30;;;;;;;9.07;4.73;;;8.30;71.30;;;;;;6154555;23;20239;-75
2022/12/13 12:18:59;;;;;;;10.63;5.20;;;8.30;69.40;;;;;;6149602;23;20161;-76
2022/12/13 12:21:37;;;;;;;7.87;4.40;;;8.30;69.90;;;;;;6148524;23;20467;-76
2022/12/13 12:24:45;;;;;;;9.30;5.00;;;8.40;70.20;;;;;;6149624;23;20179;-77
2022/12/13 12:27:29;;;;;;;9.37;4.30;;;8.40;69.00;;;;;;6138320;23;20239;-79
2022/12/13 12:30:15;;;;;;;9.60;5.20;;;8.50;70.10;;;;;;6149100;23;20188;-76
2022/12/13 12:32:54;;;;;;;11.03;4.53;;;8.50;69.40;;;;;;6152529;23;20247;-75
2022/12/13 12:35:52;;;;;;;10.60;5.07;;;8.60;70.50;;;;;;6151648;23;20172;-76
2022/12/13 12:39:08;;;;;;;10.30;4.93;;;8.60;69.70;;;;;;6153570;23;20725;-75
2022/12/13 12:41:52;;;;;;;11.97;4.63;;;8.70;69.80;;;;;;6093044;23;20227;-76
2022/12/13 12:44:30;;;;;;;8.83;4.10;;;8.70;67.40;;;;;;6154772;23;20161;-76
2022/12/13 12:47:08;;;;;;;10.03;4.87;;;8.70;67.20;;;;;;6154291;23;20164;-75
2022/12/13 12:50:19;;;;;;;8.50;4.57;;;8.60;66.00;;;;;;6153232;23;20284;-75
2022/12/13 12:52:56;;;;;;;7.73;3.83;;;8.70;67.70;;;;;;6154945;23;20599;-76
2022/12/13 12:55:35;;;;;;;10.73;4.20;;;8.80;68.80;;;;;;6155522;23;20164;-77
2022/12/13 12:58:17;;;;;;;8.67;4.40;;;8.90;68.00;;;;;;6153764;23;20160;-76
2022/12/13 13:00:56;;;;;;;7.87;3.80;;;8.90;67.10;;;;;;6153133;23;20160;-76
2022/12/13 13:03:28;;;;;;;7.67;3.37;;;9.20;68.30;;;;;;6155017;23;20161;-79
2022/12/13 13:06:01;;;;;;;8.10;4.43;;;9.50;65.90;;;;;;6152958;23;20204;-76
2022/12/13 13:08:36;;;;;;;7.50;4.10;;;9.70;65.50;;;;;;6154069;23;20161;-76
2022/12/13 13:11:06;;;;;;;8.67;3.90;;;9.70;62.70;;;;;;6155001;23;20192;-76
2022/12/13 13:14:05;;;;;;;7.90;4.03;;;9.90;63.80;;;;;;6152917;23;20240;-76
2022/12/13 13:16:39;;;;;;;8.83;4.33;;;10.00;64.00;;;;;;6149307;23;20160;-77
2022/12/13 13:19:40;;;;;;;9.03;4.07;;;10.10;62.90;;;;;;6150005;23;20208;-76
2022/12/13 13:22:28;;;;;;;8.07;3.90;;;10.30;61.70;;;;;;6150862;23;20176;-76
2022/12/13 13:25:17;;;;;;;7.30;3.77;;;11.00;59.60;;;;;;6152428;23;20164;-77
2022/12/13 13:27:46;;;;;;;10.97;3.83;;;12.50;58.80;;;;;;6154249;23;20529;-77